IE-0028 weather

Ballyboe Airstrip
County Tipperary, Ireland

Public forecast

Using degrees Celsius for public forecast. Weather courtesy of forecast.io.

Closest aviation weather report (METAR) to Ballyboe Airstrip

Closest report is Waterford Airport, 22.8 nm (42.2 km) ESE. Retrieved 2020/07/04 17:00 UTC (5 minutes ago):

EIWF 041700Z 25018KT 210V290 9999 FEW004 SCT032 16/14 Q1006

Closest aviation forecast (TAF) to Ballyboe Airstrip

Closest forecast is Cork Airport, 45.8 nm (84.8 km) SW. Retrieved 2020/07/04 12:11 UTC (5 hours ago):

TAF EICK 041100Z 0412/0512 24010KT 9999 SCT007 BKN012 TEMPO 0412/0424 4000 -RADZ BKN007 PROB30 TEMPO 0412/0424 2000 BKN002 BECMG 0418/0420 23018G28KT BKN012 BECMG 0500/0502 27018G32KT SCT012 BKN020 BECMG 0503/0505 27015KT BECMG 0509/0511 27020G32KT